sensor_id;sensor_type;location;lat;lon;timestamp;P1;durP1;ratioP1;P2;durP2;ratioP2
9413;SDS011;4746;35.664;139.738;2023-06-01T00:01:43;5.85;;;3.30;;
9413;SDS011;4746;35.664;139.738;2023-06-01T00:04:11;8.27;;;4.15;;
9413;SDS011;4746;35.664;139.738;2023-06-01T00:06:39;7.07;;;4.43;;
9413;SDS011;4746;35.664;139.738;2023-06-01T00:09:09;10.00;;;4.68;;
9413;SDS011;4746;35.664;139.738;2023-06-01T00:11:37;7.10;;;3.42;;
9413;SDS011;4746;35.664;139.738;2023-06-01T00:14:05;8.93;;;3.58;;
9413;SDS011;4746;35.664;139.738;2023-06-01T00:16:33;8.05;;;3.70;;
9413;SDS011;4746;35.664;139.738;2023-06-01T00:19:01;9.00;;;4.53;;
9413;SDS011;4746;35.664;139.738;2023-06-01T00:21:30;6.05;;;4.03;;
9413;SDS011;4746;35.664;139.738;2023-06-01T00:23:58;6.03;;;3.55;;
9413;SDS011;4746;35.664;139.738;2023-06-01T00:26:26;7.90;;;3.85;;
9413;SDS011;4746;35.664;139.738;2023-06-01T00:28:55;3.92;;;2.80;;
9413;SDS011;4746;35.664;139.738;2023-06-01T00:31:22;4.50;;;3.00;;
9413;SDS011;4746;35.664;139.738;2023-06-01T00:33:50;5.40;;;4.07;;
9413;SDS011;4746;35.664;139.738;2023-06-01T00:36:18;7.72;;;3.90;;
9413;SDS011;4746;35.664;139.738;2023-06-01T00:38:50;13.10;;;6.75;;
9413;SDS011;4746;35.664;139.738;2023-06-01T00:41:18;8.48;;;4.80;;
9413;SDS011;4746;35.664;139.738;2023-06-01T00:43:46;6.95;;;4.88;;
9413;SDS011;4746;35.664;139.738;2023-06-01T00:46:13;7.18;;;4.85;;
9413;SDS011;4746;35.664;139.738;2023-06-01T00:48:41;7.88;;;4.18;;
9413;SDS011;4746;35.664;139.738;2023-06-01T00:51:08;8.13;;;4.90;;
9413;SDS011;4746;35.664;139.738;2023-06-01T00:53:37;9.07;;;5.20;;
9413;SDS011;4746;35.664;139.738;2023-06-01T00:56:05;5.65;;;3.72;;
9413;SDS011;4746;35.664;139.738;2023-06-01T00:58:37;9.57;;;4.15;;
9413;SDS011;4746;35.664;139.738;2023-06-01T01:01:06;8.80;;;3.78;;
9413;SDS011;4746;35.664;139.738;2023-06-01T01:03:47;8.18;;;3.92;;
9413;SDS011;4746;35.664;139.738;2023-06-01T01:06:27;9.93;;;3.70;;
9413;SDS011;4746;35.664;139.738;2023-06-01T01:09:35;10.13;;;3.30;;
9413;SDS011;4746;35.664;139.738;2023-06-01T01:12:40;4.85;;;3.10;;
9413;SDS011;4746;35.664;139.738;2023-06-01T01:15:21;3.42;;;3.10;;
9413;SDS011;4746;35.664;139.738;2023-06-01T01:18:36;5.65;;;3.25;;
9413;SDS011;4746;35.664;139.738;2023-06-01T01:21:12;6.85;;;3.42;;
9413;SDS011;4746;35.664;139.738;2023-06-01T01:24:13;6.65;;;3.42;;
9413;SDS011;4746;35.664;139.738;2023-06-01T01:30:00;4.50;;;2.75;;
9413;SDS011;4746;35.664;139.738;2023-06-01T01:32:32;6.65;;;2.88;;
9413;SDS011;4746;35.664;139.738;2023-06-01T01:35:03;4.22;;;2.75;;
9413;SDS011;4746;35.664;139.738;2023-06-01T01:37:34;5.97;;;2.42;;
9413;SDS011;4746;35.664;139.738;2023-06-01T01:40:01;3.88;;;2.78;;
9413;SDS011;4746;35.664;139.738;2023-06-01T01:42:30;5.88;;;2.67;;
9413;SDS011;4746;35.664;139.738;2023-06-01T01:44:58;6.40;;;2.50;;
9413;SDS011;4746;35.664;139.738;2023-06-01T01:47:34;3.28;;;2.58;;
9413;SDS011;4746;35.664;139.738;2023-06-01T01:50:18;4.30;;;2.72;;
9413;SDS011;4746;35.664;139.738;2023-06-01T01:52:54;3.47;;;2.70;;
9413;SDS011;4746;35.664;139.738;2023-06-01T01:55:23;2.70;;;2.50;;
9413;SDS011;4746;35.664;139.738;2023-06-01T01:57:56;4.70;;;2.80;;
9413;SDS011;4746;35.664;139.738;2023-06-01T02:00:27;4.15;;;2.88;;
9413;SDS011;4746;35.664;139.738;2023-06-01T02:02:58;5.28;;;3.58;;
9413;SDS011;4746;35.664;139.738;2023-06-01T02:05:26;5.82;;;2.75;;
9413;SDS011;4746;35.664;139.738;2023-06-01T02:07:54;3.78;;;2.65;;
9413;SDS011;4746;35.664;139.738;2023-06-01T02:10:22;5.13;;;2.95;;
9413;SDS011;4746;35.664;139.738;2023-06-01T02:12:49;9.10;;;3.72;;
9413;SDS011;4746;35.664;139.738;2023-06-01T02:15:17;5.40;;;2.90;;
9413;SDS011;4746;35.664;139.738;2023-06-01T02:17:45;4.05;;;2.70;;
9413;SDS011;4746;35.664;139.738;2023-06-01T02:20:12;3.25;;;2.67;;
9413;SDS011;4746;35.664;139.738;2023-06-01T02:22:40;5.55;;;2.88;;
9413;SDS011;4746;35.664;139.738;2023-06-01T02:25:07;4.15;;;2.20;;
9413;SDS011;4746;35.664;139.738;2023-06-01T02:27:35;4.68;;;2.60;;
9413;SDS011;4746;35.664;139.738;2023-06-01T02:30:03;4.93;;;2.85;;
9413;SDS011;4746;35.664;139.738;2023-06-01T02:32:33;4.32;;;2.80;;
9413;SDS011;4746;35.664;139.738;2023-06-01T02:35:00;5.18;;;2.80;;
9413;SDS011;4746;35.664;139.738;2023-06-01T02:37:28;2.80;;;2.08;;
9413;SDS011;4746;35.664;139.738;2023-06-01T02:39:56;5.28;;;1.70;;
9413;SDS011;4746;35.664;139.738;2023-06-01T02:42:23;2.47;;;2.20;;
9413;SDS011;4746;35.664;139.738;2023-06-01T02:44:51;4.80;;;2.67;;
9413;SDS011;4746;35.664;139.738;2023-06-01T02:47:18;4.80;;;2.70;;
9413;SDS011;4746;35.664;139.738;2023-06-01T02:49:46;5.07;;;2.58;;
9413;SDS011;4746;35.664;139.738;2023-06-01T02:52:13;4.60;;;2.17;;
9413;SDS011;4746;35.664;139.738;2023-06-01T02:54:41;5.30;;;2.72;;
9413;SDS011;4746;35.664;139.738;2023-06-01T02:57:09;3.55;;;2.30;;
9413;SDS011;4746;35.664;139.738;2023-06-01T02:59:36;2.58;;;2.25;;
9413;SDS011;4746;35.664;139.738;2023-06-01T03:02:04;2.47;;;1.65;;
9413;SDS011;4746;35.664;139.738;2023-06-01T03:04:32;3.85;;;2.42;;
9413;SDS011;4746;35.664;139.738;2023-06-01T03:06:59;4.38;;;2.47;;
9413;SDS011;4746;35.664;139.738;2023-06-01T03:09:30;3.22;;;2.35;;
9413;SDS011;4746;35.664;139.738;2023-06-01T03:12:00;3.40;;;2.10;;
9413;SDS011;4746;35.664;139.738;2023-06-01T03:14:27;2.75;;;2.40;;
9413;SDS011;4746;35.664;139.738;2023-06-01T03:16:55;3.00;;;2.00;;
9413;SDS011;4746;35.664;139.738;2023-06-01T03:19:22;3.17;;;2.33;;
9413;SDS011;4746;35.664;139.738;2023-06-01T03:21:50;2.70;;;2.50;;
9413;SDS011;4746;35.664;139.738;2023-06-01T03:24:18;3.05;;;2.20;;
9413;SDS011;4746;35.664;139.738;2023-06-01T03:26:46;6.10;;;2.35;;
9413;SDS011;4746;35.664;139.738;2023-06-01T03:29:14;2.85;;;1.77;;
9413;SDS011;4746;35.664;139.738;2023-06-01T03:31:41;2.55;;;1.67;;
9413;SDS011;4746;35.664;139.738;2023-06-01T03:34:09;2.45;;;2.03;;
9413;SDS011;4746;35.664;139.738;2023-06-01T03:36:37;3.92;;;1.83;;
9413;SDS011;4746;35.664;139.738;2023-06-01T03:39:07;3.78;;;2.00;;
9413;SDS011;4746;35.664;139.738;2023-06-01T03:41:35;4.03;;;2.53;;
9413;SDS011;4746;35.664;139.738;2023-06-01T03:44:02;3.30;;;2.45;;
9413;SDS011;4746;35.664;139.738;2023-06-01T03:46:30;3.90;;;2.45;;
9413;SDS011;4746;35.664;139.738;2023-06-01T03:48:58;4.40;;;2.92;;
9413;SDS011;4746;35.664;139.738;2023-06-01T03:51:25;7.68;;;2.65;;
9413;SDS011;4746;35.664;139.738;2023-06-01T03:53:53;4.25;;;2.70;;
9413;SDS011;4746;35.664;139.738;2023-06-01T03:56:21;5.30;;;3.05;;
9413;SDS011;4746;35.664;139.738;2023-06-01T03:58:49;4.13;;;2.25;;
9413;SDS011;4746;35.664;139.738;2023-06-01T04:01:17;3.58;;;1.90;;
9413;SDS011;4746;35.664;139.738;2023-06-01T04:03:45;2.80;;;2.17;;
9413;SDS011;4746;35.664;139.738;2023-06-01T04:06:15;2.67;;;1.92;;
9413;SDS011;4746;35.664;139.738;2023-06-01T04:08:45;3.15;;;2.17;;
9413;SDS011;4746;35.664;139.738;2023-06-01T04:11:21;3.30;;;2.10;;
9413;SDS011;4746;35.664;139.738;2023-06-01T04:13:49;3.78;;;2.20;;
9413;SDS011;4746;35.664;139.738;2023-06-01T04:16:16;4.03;;;2.15;;
9413;SDS011;4746;35.664;139.738;2023-06-01T04:18:44;3.72;;;2.40;;
9413;SDS011;4746;35.664;139.738;2023-06-01T04:21:12;2.83;;;2.20;;
9413;SDS011;4746;35.664;139.738;2023-06-01T04:23:40;3.25;;;2.15;;
9413;SDS011;4746;35.664;139.738;2023-06-01T04:26:08;4.47;;;2.05;;
9413;SDS011;4746;35.664;139.738;2023-06-01T04:28:35;3.08;;;1.90;;
9413;SDS011;4746;35.664;139.738;2023-06-01T04:31:15;4.82;;;1.92;;
9413;SDS011;4746;35.664;139.738;2023-06-01T04:33:45;4.13;;;1.77;;
9413;SDS011;4746;35.664;139.738;2023-06-01T04:36:19;2.55;;;1.52;;
9413;SDS011;4746;35.664;139.738;2023-06-01T04:38:48;1.52;;;1.33;;
9413;SDS011;4746;35.664;139.738;2023-06-01T04:41:20;3.60;;;2.20;;
9413;SDS011;4746;35.664;139.738;2023-06-01T04:43:51;2.03;;;1.77;;
9413;SDS011;4746;35.664;139.738;2023-06-01T04:46:23;7.03;;;2.53;;
9413;SDS011;4746;35.664;139.738;2023-06-01T04:48:52;3.83;;;1.85;;
9413;SDS011;4746;35.664;139.738;2023-06-01T04:51:29;4.35;;;2.25;;
9413;SDS011;4746;35.664;139.738;2023-06-01T04:54:03;4.45;;;2.00;;
9413;SDS011;4746;35.664;139.738;2023-06-01T04:56:32;3.90;;;2.17;;
9413;SDS011;4746;35.664;139.738;2023-06-01T04:59:01;1.92;;;1.60;;
9413;SDS011;4746;35.664;139.738;2023-06-01T05:01:30;1.95;;;1.65;;
9413;SDS011;4746;35.664;139.738;2023-06-01T05:03:58;4.40;;;2.08;;
9413;SDS011;4746;35.664;139.738;2023-06-01T05:06:25;1.58;;;1.48;;
9413;SDS011;4746;35.664;139.738;2023-06-01T05:08:53;1.38;;;1.17;;
9413;SDS011;4746;35.664;139.738;2023-06-01T05:11:23;2.83;;;1.73;;
9413;SDS011;4746;35.664;139.738;2023-06-01T05:13:51;3.10;;;1.77;;
9413;SDS011;4746;35.664;139.738;2023-06-01T05:16:23;2.15;;;1.52;;
9413;SDS011;4746;35.664;139.738;2023-06-01T05:18:52;3.10;;;1.85;;
9413;SDS011;4746;35.664;139.738;2023-06-01T05:21:24;1.65;;;1.50;;
9413;SDS011;4746;35.664;139.738;2023-06-01T05:23:53;7.25;;;2.03;;
9413;SDS011;4746;35.664;139.738;2023-06-01T05:26:21;2.65;;;1.90;;
9413;SDS011;4746;35.664;139.738;2023-06-01T05:28:49;4.55;;;1.92;;
9413;SDS011;4746;35.664;139.738;2023-06-01T05:31:16;4.70;;;2.10;;
9413;SDS011;4746;35.664;139.738;2023-06-01T05:33:45;3.92;;;2.17;;
9413;SDS011;4746;35.664;139.738;2023-06-01T05:36:13;3.00;;;2.13;;
9413;SDS011;4746;35.664;139.738;2023-06-01T05:38:40;4.10;;;2.30;;
9413;SDS011;4746;35.664;139.738;2023-06-01T05:41:08;2.30;;;1.73;;
9413;SDS011;4746;35.664;139.738;2023-06-01T05:43:36;5.43;;;2.67;;
9413;SDS011;4746;35.664;139.738;2023-06-01T05:46:05;5.82;;;2.63;;
9413;SDS011;4746;35.664;139.738;2023-06-01T05:48:33;11.35;;;4.20;;
9413;SDS011;4746;35.664;139.738;2023-06-01T05:51:00;5.25;;;2.38;;
9413;SDS011;4746;35.664;139.738;2023-06-01T05:53:28;3.35;;;2.00;;
9413;SDS011;4746;35.664;139.738;2023-06-01T05:55:56;3.83;;;2.22;;
9413;SDS011;4746;35.664;139.738;2023-06-01T05:58:23;5.10;;;2.80;;
9413;SDS011;4746;35.664;139.738;2023-06-01T06:00:51;4.95;;;2.50;;
9413;SDS011;4746;35.664;139.738;2023-06-01T06:03:18;4.70;;;2.45;;
9413;SDS011;4746;35.664;139.738;2023-06-01T06:05:48;5.97;;;2.63;;
9413;SDS011;4746;35.664;139.738;2023-06-01T06:08:16;5.53;;;2.65;;
9413;SDS011;4746;35.664;139.738;2023-06-01T06:10:44;3.67;;;2.50;;
9413;SDS011;4746;35.664;139.738;2023-06-01T06:13:13;5.82;;;2.75;;
9413;SDS011;4746;35.664;139.738;2023-06-01T06:15:41;4.32;;;2.58;;
9413;SDS011;4746;35.664;139.738;2023-06-01T06:18:08;5.35;;;3.50;;
9413;SDS011;4746;35.664;139.738;2023-06-01T06:20:37;7.13;;;3.55;;
9413;SDS011;4746;35.664;139.738;2023-06-01T06:23:05;4.00;;;3.17;;
9413;SDS011;4746;35.664;139.738;2023-06-01T06:25:34;4.95;;;2.80;;
9413;SDS011;4746;35.664;139.738;2023-06-01T06:28:02;5.25;;;2.80;;
9413;SDS011;4746;35.664;139.738;2023-06-01T06:30:29;5.70;;;3.47;;
9413;SDS011;4746;35.664;139.738;2023-06-01T06:32:57;4.47;;;2.97;;
9413;SDS011;4746;35.664;139.738;2023-06-01T06:35:25;8.57;;;3.15;;
9413;SDS011;4746;35.664;139.738;2023-06-01T06:37:53;5.82;;;3.05;;
9413;SDS011;4746;35.664;139.738;2023-06-01T06:40:20;8.60;;;4.22;;
9413;SDS011;4746;35.664;139.738;2023-06-01T06:42:48;4.72;;;3.15;;
9413;SDS011;4746;35.664;139.738;2023-06-01T06:45:16;8.43;;;3.10;;
9413;SDS011;4746;35.664;139.738;2023-06-01T06:47:46;6.22;;;3.42;;
9413;SDS011;4746;35.664;139.738;2023-06-01T06:50:14;6.82;;;3.17;;
9413;SDS011;4746;35.664;139.738;2023-06-01T06:52:42;6.63;;;3.35;;
9413;SDS011;4746;35.664;139.738;2023-06-01T06:55:10;4.00;;;2.75;;
9413;SDS011;4746;35.664;139.738;2023-06-01T06:57:38;6.00;;;3.20;;
9413;SDS011;4746;35.664;139.738;2023-06-01T07:00:06;4.93;;;2.72;;
9413;SDS011;4746;35.664;139.738;2023-06-01T07:02:40;4.03;;;2.85;;
9413;SDS011;4746;35.664;139.738;2023-06-01T07:05:11;5.05;;;3.10;;
9413;SDS011;4746;35.664;139.738;2023-06-01T07:07:43;4.45;;;2.60;;
9413;SDS011;4746;35.664;139.738;2023-06-01T07:10:12;5.93;;;3.20;;
9413;SDS011;4746;35.664;139.738;2023-06-01T07:12:40;5.00;;;2.38;;
9413;SDS011;4746;35.664;139.738;2023-06-01T07:15:14;7.05;;;3.47;;
9413;SDS011;4746;35.664;139.738;2023-06-01T07:17:42;5.45;;;3.47;;
9413;SDS011;4746;35.664;139.738;2023-06-01T07:20:10;5.60;;;3.35;;
9413;SDS011;4746;35.664;139.738;2023-06-01T07:22:38;5.72;;;3.75;;
9413;SDS011;4746;35.664;139.738;2023-06-01T07:25:06;4.82;;;3.40;;
9413;SDS011;4746;35.664;139.738;2023-06-01T07:27:38;6.25;;;3.70;;
9413;SDS011;4746;35.664;139.738;2023-06-01T07:30:09;5.20;;;3.42;;
9413;SDS011;4746;35.664;139.738;2023-06-01T07:32:37;4.03;;;2.42;;
9413;SDS011;4746;35.664;139.738;2023-06-01T07:35:05;6.93;;;3.33;;
9413;SDS011;4746;35.664;139.738;2023-06-01T07:37:33;6.43;;;3.50;;
9413;SDS011;4746;35.664;139.738;2023-06-01T07:40:01;4.80;;;3.50;;
9413;SDS011;4746;35.664;139.738;2023-06-01T07:42:32;5.65;;;3.10;;
9413;SDS011;4746;35.664;139.738;2023-06-01T07:45:02;5.72;;;2.97;;
9413;SDS011;4746;35.664;139.738;2023-06-01T07:47:31;6.00;;;3.30;;
9413;SDS011;4746;35.664;139.738;2023-06-01T07:49:59;4.43;;;2.85;;
9413;SDS011;4746;35.664;139.738;2023-06-01T07:52:30;6.38;;;3.58;;
9413;SDS011;4746;35.664;139.738;2023-06-01T07:54:57;4.82;;;3.60;;
9413;SDS011;4746;35.664;139.738;2023-06-01T07:57:28;6.15;;;3.58;;
9413;SDS011;4746;35.664;139.738;2023-06-01T07:59:58;6.18;;;3.80;;
9413;SDS011;4746;35.664;139.738;2023-06-01T08:02:29;6.05;;;3.90;;
9413;SDS011;4746;35.664;139.738;2023-06-01T08:04:58;6.03;;;3.95;;
9413;SDS011;4746;35.664;139.738;2023-06-01T08:07:29;6.40;;;3.83;;
9413;SDS011;4746;35.664;139.738;2023-06-01T08:10:01;10.38;;;4.47;;
9413;SDS011;4746;35.664;139.738;2023-06-01T08:12:37;4.82;;;3.28;;
9413;SDS011;4746;35.664;139.738;2023-06-01T08:15:08;7.63;;;3.42;;
9413;SDS011;4746;35.664;139.738;2023-06-01T08:17:38;8.02;;;4.03;;
9413;SDS011;4746;35.664;139.738;2023-06-01T08:20:06;6.82;;;3.67;;
9413;SDS011;4746;35.664;139.738;2023-06-01T08:22:36;5.40;;;3.58;;
9413;SDS011;4746;35.664;139.738;2023-06-01T08:25:06;4.97;;;3.70;;
9413;SDS011;4746;35.664;139.738;2023-06-01T08:27:34;7.95;;;3.17;;
9413;SDS011;4746;35.664;139.738;2023-06-01T08:30:02;6.13;;;3.53;;
9413;SDS011;4746;35.664;139.738;2023-06-01T08:32:30;6.75;;;2.90;;
9413;SDS011;4746;35.664;139.738;2023-06-01T08:35:00;5.57;;;3.13;;
9413;SDS011;4746;35.664;139.738;2023-06-01T08:37:31;7.00;;;3.55;;
9413;SDS011;4746;35.664;139.738;2023-06-01T08:40:10;6.10;;;3.03;;
9413;SDS011;4746;35.664;139.738;2023-06-01T08:43:22;5.47;;;3.03;;
9413;SDS011;4746;35.664;139.738;2023-06-01T08:46:07;8.32;;;4.22;;
9413;SDS011;4746;35.664;139.738;2023-06-01T08:48:49;7.03;;;3.65;;
9413;SDS011;4746;35.664;139.738;2023-06-01T08:51:33;6.07;;;3.90;;
9413;SDS011;4746;35.664;139.738;2023-06-01T08:54:35;6.47;;;4.30;;
9413;SDS011;4746;35.664;139.738;2023-06-01T08:57:22;8.02;;;4.13;;
9413;SDS011;4746;35.664;139.738;2023-06-01T08:59:50;6.22;;;3.65;;
9413;SDS011;4746;35.664;139.738;2023-06-01T09:02:25;6.43;;;3.05;;
9413;SDS011;4746;35.664;139.738;2023-06-01T09:05:06;5.38;;;3.42;;
9413;SDS011;4746;35.664;139.738;2023-06-01T09:07:40;7.85;;;3.85;;
9413;SDS011;4746;35.664;139.738;2023-06-01T09:10:08;6.82;;;3.85;;
9413;SDS011;4746;35.664;139.738;2023-06-01T09:12:41;9.32;;;3.90;;
9413;SDS011;4746;35.664;139.738;2023-06-01T09:15:19;5.97;;;4.00;;
9413;SDS011;4746;35.664;139.738;2023-06-01T09:17:49;6.55;;;3.25;;
9413;SDS011;4746;35.664;139.738;2023-06-01T09:20:22;4.75;;;3.38;;
9413;SDS011;4746;35.664;139.738;2023-06-01T09:22:52;10.13;;;4.00;;
9413;SDS011;4746;35.664;139.738;2023-06-01T09:25:24;6.97;;;3.95;;
9413;SDS011;4746;35.664;139.738;2023-06-01T09:27:55;7.00;;;4.25;;
9413;SDS011;4746;35.664;139.738;2023-06-01T09:30:37;8.73;;;3.95;;
9413;SDS011;4746;35.664;139.738;2023-06-01T09:33:14;6.30;;;4.00;;
9413;SDS011;4746;35.664;139.738;2023-06-01T09:35:47;5.93;;;3.63;;
9413;SDS011;4746;35.664;139.738;2023-06-01T09:38:22;8.85;;;4.70;;
9413;SDS011;4746;35.664;139.738;2023-06-01T09:41:02;6.57;;;3.50;;
9413;SDS011;4746;35.664;139.738;2023-06-01T09:43:32;7.75;;;3.95;;
9413;SDS011;4746;35.664;139.738;2023-06-01T09:46:04;8.27;;;4.28;;
9413;SDS011;4746;35.664;139.738;2023-06-01T09:48:39;5.82;;;3.83;;
9413;SDS011;4746;35.664;139.738;2023-06-01T09:51:22;10.18;;;3.72;;
9413;SDS011;4746;35.664;139.738;2023-06-01T09:53:55;5.57;;;3.10;;
9413;SDS011;4746;35.664;139.738;2023-06-01T09:56:22;7.40;;;4.10;;
9413;SDS011;4746;35.664;139.738;2023-06-01T09:58:58;8.15;;;3.38;;
9413;SDS011;4746;35.664;139.738;2023-06-01T10:01:30;6.85;;;3.65;;
9413;SDS011;4746;35.664;139.738;2023-06-01T10:04:36;4.25;;;3.70;;
9413;SDS011;4746;35.664;139.738;2023-06-01T10:07:30;7.28;;;3.58;;
9413;SDS011;4746;35.664;139.738;2023-06-01T10:10:00;6.70;;;4.00;;
9413;SDS011;4746;35.664;139.738;2023-06-01T10:12:32;5.32;;;3.65;;
9413;SDS011;4746;35.664;139.738;2023-06-01T10:15:00;6.75;;;3.40;;
9413;SDS011;4746;35.664;139.738;2023-06-01T10:17:37;6.18;;;3.15;;
9413;SDS011;4746;35.664;139.738;2023-06-01T10:20:27;5.30;;;2.95;;
9413;SDS011;4746;35.664;139.738;2023-06-01T10:22:59;4.70;;;3.45;;
9413;SDS011;4746;35.664;139.738;2023-06-01T10:25:40;6.30;;;3.90;;
9413;SDS011;4746;35.664;139.738;2023-06-01T10:28:13;7.38;;;4.03;;
9413;SDS011;4746;35.664;139.738;2023-06-01T10:30:45;7.55;;;4.82;;
9413;SDS011;4746;35.664;139.738;2023-06-01T10:33:54;6.50;;;4.28;;
9413;SDS011;4746;35.664;139.738;2023-06-01T10:36:23;9.52;;;5.10;;
9413;SDS011;4746;35.664;139.738;2023-06-01T10:39:32;7.80;;;4.57;;
9413;SDS011;4746;35.664;139.738;2023-06-01T10:57:47;6.72;;;4.43;;
9413;SDS011;4746;35.664;139.738;2023-06-01T11:00:17;8.15;;;4.65;;
9413;SDS011;4746;35.664;139.738;2023-06-01T11:13:34;8.15;;;4.38;;
9413;SDS011;4746;35.664;139.738;2023-06-01T11:18:42;6.53;;;3.55;;
9413;SDS011;4746;35.664;139.738;2023-06-01T11:21:38;9.55;;;4.65;;
9413;SDS011;4746;35.664;139.738;2023-06-01T11:24:12;7.95;;;4.43;;
9413;SDS011;4746;35.664;139.738;2023-06-01T11:26:46;7.88;;;4.57;;
9413;SDS011;4746;35.664;139.738;2023-06-01T11:29:23;6.18;;;4.10;;
9413;SDS011;4746;35.664;139.738;2023-06-01T11:32:01;6.68;;;3.90;;
9413;SDS011;4746;35.664;139.738;2023-06-01T11:34:34;8.40;;;4.13;;
9413;SDS011;4746;35.664;139.738;2023-06-01T11:37:13;5.57;;;3.33;;
9413;SDS011;4746;35.664;139.738;2023-06-01T11:39:46;8.43;;;4.45;;
9413;SDS011;4746;35.664;139.738;2023-06-01T11:42:15;8.38;;;3.95;;
9413;SDS011;4746;35.664;139.738;2023-06-01T11:44:46;8.93;;;4.07;;
9413;SDS011;4746;35.664;139.738;2023-06-01T11:47:28;9.07;;;4.05;;
9413;SDS011;4746;35.664;139.738;2023-06-01T11:49:57;9.10;;;4.78;;
9413;SDS011;4746;35.664;139.738;2023-06-01T11:52:25;6.07;;;3.80;;
9413;SDS011;4746;35.664;139.738;2023-06-01T11:54:53;5.28;;;3.90;;
9413;SDS011;4746;35.664;139.738;2023-06-01T11:57:28;6.78;;;3.85;;
9413;SDS011;4746;35.664;139.738;2023-06-01T11:59:56;5.35;;;4.32;;
9413;SDS011;4746;35.664;139.738;2023-06-01T12:02:25;4.95;;;3.53;;
9413;SDS011;4746;35.664;139.738;2023-06-01T12:10:13;7.85;;;3.78;;
9413;SDS011;4746;35.664;139.738;2023-06-01T12:12:44;5.90;;;3.63;;
9413;SDS011;4746;35.664;139.738;2023-06-01T12:15:16;5.28;;;3.65;;
9413;SDS011;4746;35.664;139.738;2023-06-01T12:17:54;7.30;;;3.38;;
9413;SDS011;4746;35.664;139.738;2023-06-01T12:20:26;9.38;;;3.58;;
9413;SDS011;4746;35.664;139.738;2023-06-01T12:25:55;6.93;;;4.30;;
9413;SDS011;4746;35.664;139.738;2023-06-01T12:28:25;8.88;;;3.70;;
9413;SDS011;4746;35.664;139.738;2023-06-01T12:31:09;4.60;;;3.35;;
9413;SDS011;4746;35.664;139.738;2023-06-01T12:33:39;7.65;;;3.17;;
9413;SDS011;4746;35.664;139.738;2023-06-01T12:36:10;5.85;;;3.45;;
9413;SDS011;4746;35.664;139.738;2023-06-01T12:39:03;4.70;;;3.97;;
9413;SDS011;4746;35.664;139.738;2023-06-01T12:41:31;7.32;;;4.05;;
9413;SDS011;4746;35.664;139.738;2023-06-01T12:43:59;6.03;;;3.55;;
9413;SDS011;4746;35.664;139.738;2023-06-01T12:46:28;7.32;;;4.13;;
9413;SDS011;4746;35.664;139.738;2023-06-01T12:49:16;7.00;;;3.88;;
9413;SDS011;4746;35.664;139.738;2023-06-01T12:51:45;9.85;;;4.30;;
9413;SDS011;4746;35.664;139.738;2023-06-01T12:54:14;6.65;;;3.95;;
9413;SDS011;4746;35.664;139.738;2023-06-01T12:56:43;7.50;;;4.30;;
9413;SDS011;4746;35.664;139.738;2023-06-01T12:59:15;7.63;;;4.63;;
9413;SDS011;4746;35.664;139.738;2023-06-01T13:01:44;9.32;;;4.47;;
9413;SDS011;4746;35.664;139.738;2023-06-01T13:04:14;6.47;;;4.22;;
9413;SDS011;4746;35.664;139.738;2023-06-01T13:06:42;9.10;;;5.03;;
9413;SDS011;4746;35.664;139.738;2023-06-01T13:09:11;7.18;;;5.35;;
9413;SDS011;4746;35.664;139.738;2023-06-01T13:11:41;9.93;;;5.13;;
9413;SDS011;4746;35.664;139.738;2023-06-01T13:14:10;11.95;;;5.85;;
9413;SDS011;4746;35.664;139.738;2023-06-01T13:16:39;11.55;;;5.22;;
9413;SDS011;4746;35.664;139.738;2023-06-01T13:19:07;10.18;;;5.25;;
9413;SDS011;4746;35.664;139.738;2023-06-01T13:21:35;8.32;;;4.80;;
9413;SDS011;4746;35.664;139.738;2023-06-01T13:24:04;10.18;;;5.20;;
9413;SDS011;4746;35.664;139.738;2023-06-01T13:26:34;9.57;;;5.15;;
9413;SDS011;4746;35.664;139.738;2023-06-01T13:29:03;11.13;;;5.25;;
9413;SDS011;4746;35.664;139.738;2023-06-01T13:31:32;8.63;;;5.50;;
9413;SDS011;4746;35.664;139.738;2023-06-01T13:34:02;8.98;;;5.93;;
9413;SDS011;4746;35.664;139.738;2023-06-01T13:36:32;7.68;;;6.00;;
9413;SDS011;4746;35.664;139.738;2023-06-01T13:39:01;9.32;;;6.45;;
9413;SDS011;4746;35.664;139.738;2023-06-01T13:41:30;13.48;;;6.35;;
9413;SDS011;4746;35.664;139.738;2023-06-01T13:43:59;12.95;;;6.95;;
9413;SDS011;4746;35.664;139.738;2023-06-01T13:46:28;11.85;;;7.50;;
9413;SDS011;4746;35.664;139.738;2023-06-01T13:48:57;10.52;;;7.00;;
9413;SDS011;4746;35.664;139.738;2023-06-01T13:51:26;13.98;;;6.13;;
9413;SDS011;4746;35.664;139.738;2023-06-01T13:53:54;12.77;;;6.72;;
9413;SDS011;4746;35.664;139.738;2023-06-01T13:56:23;14.48;;;6.78;;
9413;SDS011;4746;35.664;139.738;2023-06-01T13:58:51;11.70;;;6.03;;
9413;SDS011;4746;35.664;139.738;2023-06-01T14:01:19;9.93;;;5.53;;
9413;SDS011;4746;35.664;139.738;2023-06-01T14:03:47;13.07;;;6.03;;
9413;SDS011;4746;35.664;139.738;2023-06-01T14:06:16;11.48;;;5.85;;
9413;SDS011;4746;35.664;139.738;2023-06-01T14:08:44;13.02;;;7.78;;
9413;SDS011;4746;35.664;139.738;2023-06-01T14:11:14;13.73;;;7.25;;
9413;SDS011;4746;35.664;139.738;2023-06-01T14:13:42;14.80;;;7.85;;
9413;SDS011;4746;35.664;139.738;2023-06-01T14:16:10;12.02;;;8.13;;
9413;SDS011;4746;35.664;139.738;2023-06-01T14:18:38;12.10;;;7.60;;
9413;SDS011;4746;35.664;139.738;2023-06-01T14:21:06;12.00;;;7.72;;
9413;SDS011;4746;35.664;139.738;2023-06-01T14:23:35;9.40;;;6.70;;
9413;SDS011;4746;35.664;139.738;2023-06-01T14:26:07;10.13;;;6.53;;
9413;SDS011;4746;35.664;139.738;2023-06-01T14:28:37;12.68;;;7.72;;
9413;SDS011;4746;35.664;139.738;2023-06-01T14:31:06;17.40;;;7.80;;
9413;SDS011;4746;35.664;139.738;2023-06-01T14:33:34;9.27;;;6.65;;
9413;SDS011;4746;35.664;139.738;2023-06-01T14:36:03;10.48;;;6.28;;
9413;SDS011;4746;35.664;139.738;2023-06-01T14:38:32;11.05;;;6.43;;
9413;SDS011;4746;35.664;139.738;2023-06-01T14:41:00;13.02;;;7.07;;
9413;SDS011;4746;35.664;139.738;2023-06-01T14:43:28;11.73;;;5.88;;
9413;SDS011;4746;35.664;139.738;2023-06-01T14:45:57;10.15;;;5.65;;
9413;SDS011;4746;35.664;139.738;2023-06-01T14:48:26;13.45;;;5.57;;
9413;SDS011;4746;35.664;139.738;2023-06-01T14:50:55;12.07;;;5.65;;
9413;SDS011;4746;35.664;139.738;2023-06-01T14:53:24;10.50;;;6.05;;
9413;SDS011;4746;35.664;139.738;2023-06-01T14:55:52;12.13;;;6.47;;
9413;SDS011;4746;35.664;139.738;2023-06-01T14:58:21;15.23;;;7.75;;
9413;SDS011;4746;35.664;139.738;2023-06-01T15:00:50;13.18;;;9.10;;
9413;SDS011;4746;35.664;139.738;2023-06-01T15:03:19;16.80;;;9.88;;
9413;SDS011;4746;35.664;139.738;2023-06-01T15:05:48;13.90;;;8.93;;
9413;SDS011;4746;35.664;139.738;2023-06-01T15:08:17;12.00;;;8.35;;
9413;SDS011;4746;35.664;139.738;2023-06-01T15:10:46;10.90;;;8.20;;
9413;SDS011;4746;35.664;139.738;2023-06-01T15:13:15;10.93;;;7.97;;
9413;SDS011;4746;35.664;139.738;2023-06-01T15:15:42;10.13;;;8.15;;
9413;SDS011;4746;35.664;139.738;2023-06-01T15:18:10;9.75;;;8.07;;
9413;SDS011;4746;35.664;139.738;2023-06-01T15:20:38;11.90;;;8.43;;
9413;SDS011;4746;35.664;139.738;2023-06-01T15:23:07;12.48;;;7.70;;
9413;SDS011;4746;35.664;139.738;2023-06-01T15:25:35;13.00;;;8.30;;
9413;SDS011;4746;35.664;139.738;2023-06-01T15:28:03;13.63;;;8.82;;
9413;SDS011;4746;35.664;139.738;2023-06-01T15:30:31;13.15;;;8.93;;
9413;SDS011;4746;35.664;139.738;2023-06-01T15:32:59;10.25;;;7.55;;
9413;SDS011;4746;35.664;139.738;2023-06-01T15:35:26;11.50;;;7.38;;
9413;SDS011;4746;35.664;139.738;2023-06-01T15:37:54;9.98;;;7.05;;
9413;SDS011;4746;35.664;139.738;2023-06-01T15:40:22;10.13;;;7.88;;
9413;SDS011;4746;35.664;139.738;2023-06-01T15:42:50;9.30;;;7.65;;
9413;SDS011;4746;35.664;139.738;2023-06-01T15:45:18;9.70;;;6.93;;
9413;SDS011;4746;35.664;139.738;2023-06-01T15:47:45;12.77;;;8.60;;
9413;SDS011;4746;35.664;139.738;2023-06-01T15:50:13;8.85;;;7.85;;